sensor_id;sensor_type;location;lat;lon;timestamp;P1;durP1;ratioP1;P2;durP2;ratioP2
51236;SDS011;37312;47.550;18.818;2022-09-06T00:00:38;4.15;;;3.75;;
51236;SDS011;37312;47.550;18.818;2022-09-06T00:03:05;3.87;;;3.58;;
51236;SDS011;37312;47.550;18.818;2022-09-06T00:05:32;6.00;;;4.12;;
51236;SDS011;37312;47.550;18.818;2022-09-06T00:08:00;3.47;;;3.17;;
51236;SDS011;37312;47.550;18.818;2022-09-06T00:10:27;4.18;;;3.87;;
51236;SDS011;37312;47.550;18.818;2022-09-06T00:12:54;9.23;;;4.03;;
51236;SDS011;37312;47.550;18.818;2022-09-06T00:15:20;5.22;;;4.18;;
51236;SDS011;37312;47.550;18.818;2022-09-06T00:17:47;4.30;;;3.95;;
51236;SDS011;37312;47.550;18.818;2022-09-06T00:20:13;4.07;;;3.78;;
51236;SDS011;37312;47.550;18.818;2022-09-06T00:22:39;4.45;;;4.07;;
51236;SDS011;37312;47.550;18.818;2022-09-06T00:25:06;3.70;;;3.40;;
51236;SDS011;37312;47.550;18.818;2022-09-06T00:27:32;4.22;;;3.22;;
51236;SDS011;37312;47.550;18.818;2022-09-06T00:29:59;3.53;;;3.22;;
51236;SDS011;37312;47.550;18.818;2022-09-06T00:32:25;3.42;;;3.00;;
51236;SDS011;37312;47.550;18.818;2022-09-06T00:34:51;3.87;;;3.58;;
51236;SDS011;37312;47.550;18.818;2022-09-06T00:37:17;5.97;;;4.05;;
51236;SDS011;37312;47.550;18.818;2022-09-06T00:39:43;3.97;;;3.62;;
51236;SDS011;37312;47.550;18.818;2022-09-06T00:42:09;6.93;;;4.07;;
51236;SDS011;37312;47.550;18.818;2022-09-06T00:44:36;4.70;;;3.85;;
51236;SDS011;37312;47.550;18.818;2022-09-06T00:47:03;3.12;;;2.83;;
51236;SDS011;37312;47.550;18.818;2022-09-06T00:49:30;3.25;;;2.97;;
51236;SDS011;37312;47.550;18.818;2022-09-06T00:52:05;3.35;;;3.15;;
51236;SDS011;37312;47.550;18.818;2022-09-06T00:54:38;3.87;;;3.58;;
51236;SDS011;37312;47.550;18.818;2022-09-06T00:57:04;3.58;;;3.37;;
51236;SDS011;37312;47.550;18.818;2022-09-06T00:59:32;4.72;;;3.33;;
51236;SDS011;37312;47.550;18.818;2022-09-06T01:02:00;3.22;;;3.03;;
51236;SDS011;37312;47.550;18.818;2022-09-06T01:04:27;3.25;;;3.03;;
51236;SDS011;37312;47.550;18.818;2022-09-06T01:18:00;4.78;;;4.20;;
51236;SDS011;37312;47.550;18.818;2022-09-06T01:20:38;5.20;;;3.92;;
51236;SDS011;37312;47.550;18.818;2022-09-06T01:28:44;4.03;;;3.72;;
51236;SDS011;37312;47.550;18.818;2022-09-06T01:36:22;4.93;;;3.62;;
51236;SDS011;37312;47.550;18.818;2022-09-06T01:38:52;3.53;;;2.83;;
51236;SDS011;37312;47.550;18.818;2022-09-06T01:41:18;4.12;;;3.65;;
51236;SDS011;37312;47.550;18.818;2022-09-06T01:43:45;4.20;;;3.85;;
51236;SDS011;37312;47.550;18.818;2022-09-06T01:48:53;4.65;;;4.20;;
51236;SDS011;37312;47.550;18.818;2022-09-06T01:51:56;7.55;;;4.47;;
51236;SDS011;37312;47.550;18.818;2022-09-06T02:00:24;7.00;;;4.35;;
51236;SDS011;37312;47.550;18.818;2022-09-06T02:03:07;5.10;;;4.70;;
51236;SDS011;37312;47.550;18.818;2022-09-06T02:05:49;5.53;;;5.03;;
51236;SDS011;37312;47.550;18.818;2022-09-06T02:08:21;4.60;;;4.28;;
51236;SDS011;37312;47.550;18.818;2022-09-06T02:10:55;4.87;;;4.55;;
51236;SDS011;37312;47.550;18.818;2022-09-06T02:13:25;5.40;;;3.92;;
51236;SDS011;37312;47.550;18.818;2022-09-06T02:16:00;4.68;;;3.85;;
51236;SDS011;37312;47.550;18.818;2022-09-06T02:18:39;5.07;;;4.57;;
51236;SDS011;37312;47.550;18.818;2022-09-06T02:21:09;4.75;;;4.43;;
51236;SDS011;37312;47.550;18.818;2022-09-06T02:23:38;6.87;;;4.47;;
51236;SDS011;37312;47.550;18.818;2022-09-06T02:26:27;5.50;;;5.05;;
51236;SDS011;37312;47.550;18.818;2022-09-06T02:28:55;4.55;;;4.25;;
51236;SDS011;37312;47.550;18.818;2022-09-06T02:31:32;6.28;;;4.47;;
51236;SDS011;37312;47.550;18.818;2022-09-06T02:33:58;5.70;;;5.30;;
51236;SDS011;37312;47.550;18.818;2022-09-06T02:36:25;5.28;;;4.70;;
51236;SDS011;37312;47.550;18.818;2022-09-06T02:38:52;5.40;;;5.00;;
51236;SDS011;37312;47.550;18.818;2022-09-06T02:41:19;4.53;;;4.22;;
51236;SDS011;37312;47.550;18.818;2022-09-06T02:43:47;6.57;;;5.10;;
51236;SDS011;37312;47.550;18.818;2022-09-06T02:48:39;6.40;;;5.28;;
51236;SDS011;37312;47.550;18.818;2022-09-06T02:51:06;5.60;;;5.00;;
51236;SDS011;37312;47.550;18.818;2022-09-06T02:53:33;5.68;;;5.22;;
51236;SDS011;37312;47.550;18.818;2022-09-06T02:55:59;5.62;;;5.22;;
51236;SDS011;37312;47.550;18.818;2022-09-06T02:58:26;5.60;;;5.10;;
51236;SDS011;37312;47.550;18.818;2022-09-06T03:00:52;5.10;;;4.75;;
51236;SDS011;37312;47.550;18.818;2022-09-06T03:03:19;5.35;;;4.85;;
51236;SDS011;37312;47.550;18.818;2022-09-06T03:05:46;5.40;;;5.00;;
51236;SDS011;37312;47.550;18.818;2022-09-06T03:08:16;6.80;;;5.25;;
51236;SDS011;37312;47.550;18.818;2022-09-06T03:10:47;4.93;;;4.60;;
51236;SDS011;37312;47.550;18.818;2022-09-06T03:13:20;6.03;;;4.93;;
51236;SDS011;37312;47.550;18.818;2022-09-06T03:15:50;7.82;;;4.43;;
51236;SDS011;37312;47.550;18.818;2022-09-06T03:18:17;5.72;;;5.25;;
51236;SDS011;37312;47.550;18.818;2022-09-06T03:23:08;6.30;;;5.80;;
51236;SDS011;37312;47.550;18.818;2022-09-06T03:25:35;5.72;;;5.32;;
51236;SDS011;37312;47.550;18.818;2022-09-06T03:30:28;6.28;;;5.68;;
51236;SDS011;37312;47.550;18.818;2022-09-06T03:35:19;5.93;;;5.53;;
51236;SDS011;37312;47.550;18.818;2022-09-06T03:40:11;6.05;;;5.55;;
51236;SDS011;37312;47.550;18.818;2022-09-06T03:45:02;7.70;;;4.45;;
51236;SDS011;37312;47.550;18.818;2022-09-06T03:47:30;6.90;;;5.85;;
51236;SDS011;37312;47.550;18.818;2022-09-06T03:52:21;7.18;;;6.50;;
51236;SDS011;37312;47.550;18.818;2022-09-06T03:54:47;11.43;;;5.82;;
51236;SDS011;37312;47.550;18.818;2022-09-06T03:59:39;8.70;;;6.35;;
51236;SDS011;37312;47.550;18.818;2022-09-06T04:02:05;5.60;;;4.93;;
51236;SDS011;37312;47.550;18.818;2022-09-06T04:04:32;5.10;;;4.72;;
51236;SDS011;37312;47.550;18.818;2022-09-06T04:09:23;5.65;;;5.25;;
51236;SDS011;37312;47.550;18.818;2022-09-06T04:11:49;7.07;;;5.18;;
51236;SDS011;37312;47.550;18.818;2022-09-06T04:16:41;6.43;;;5.80;;
51236;SDS011;37312;47.550;18.818;2022-09-06T04:21:33;6.85;;;6.18;;
51236;SDS011;37312;47.550;18.818;2022-09-06T04:24:00;6.05;;;5.62;;
51236;SDS011;37312;47.550;18.818;2022-09-06T04:26:26;5.85;;;5.45;;
51236;SDS011;37312;47.550;18.818;2022-09-06T04:28:52;5.57;;;5.07;;
51236;SDS011;37312;47.550;18.818;2022-09-06T04:33:43;6.15;;;5.65;;
51236;SDS011;37312;47.550;18.818;2022-09-06T04:36:10;7.82;;;5.65;;
51236;SDS011;37312;47.550;18.818;2022-09-06T04:38:40;6.57;;;5.95;;
51236;SDS011;37312;47.550;18.818;2022-09-06T04:41:08;5.47;;;4.97;;
51236;SDS011;37312;47.550;18.818;2022-09-06T04:43:38;6.30;;;5.68;;
51236;SDS011;37312;47.550;18.818;2022-09-06T04:48:31;6.03;;;5.62;;
51236;SDS011;37312;47.550;18.818;2022-09-06T04:50:57;7.57;;;5.85;;
51236;SDS011;37312;47.550;18.818;2022-09-06T04:55:48;6.22;;;5.62;;
51236;SDS011;37312;47.550;18.818;2022-09-06T04:58:14;6.62;;;6.07;;
51236;SDS011;37312;47.550;18.818;2022-09-06T05:03:08;5.10;;;4.78;;
51236;SDS011;37312;47.550;18.818;2022-09-06T05:08:00;6.97;;;6.28;;
51236;SDS011;37312;47.550;18.818;2022-09-06T05:10:26;15.20;;;5.50;;
51236;SDS011;37312;47.550;18.818;2022-09-06T05:12:52;5.05;;;4.55;;
51236;SDS011;37312;47.550;18.818;2022-09-06T05:15:19;9.65;;;5.05;;
51236;SDS011;37312;47.550;18.818;2022-09-06T05:17:46;7.18;;;5.20;;
51236;SDS011;37312;47.550;18.818;2022-09-06T05:20:12;5.47;;;4.95;;
51236;SDS011;37312;47.550;18.818;2022-09-06T05:22:38;4.90;;;4.60;;
51236;SDS011;37312;47.550;18.818;2022-09-06T05:25:05;3.75;;;3.45;;
51236;SDS011;37312;47.550;18.818;2022-09-06T05:27:33;5.97;;;3.50;;
51236;SDS011;37312;47.550;18.818;2022-09-06T05:29:59;4.37;;;4.03;;
51236;SDS011;37312;47.550;18.818;2022-09-06T05:32:24;7.53;;;4.12;;
51236;SDS011;37312;47.550;18.818;2022-09-06T05:34:50;4.95;;;3.87;;
51236;SDS011;37312;47.550;18.818;2022-09-06T05:37:16;3.90;;;3.60;;
51236;SDS011;37312;47.550;18.818;2022-09-06T05:39:42;8.23;;;4.35;;
51236;SDS011;37312;47.550;18.818;2022-09-06T05:42:08;3.58;;;3.28;;
51236;SDS011;37312;47.550;18.818;2022-09-06T05:44:35;4.60;;;4.20;;
51236;SDS011;37312;47.550;18.818;2022-09-06T05:47:02;4.87;;;3.75;;
51236;SDS011;37312;47.550;18.818;2022-09-06T05:49:29;3.97;;;3.58;;
51236;SDS011;37312;47.550;18.818;2022-09-06T05:51:56;5.07;;;3.58;;
51236;SDS011;37312;47.550;18.818;2022-09-06T05:54:22;8.90;;;4.03;;
51236;SDS011;37312;47.550;18.818;2022-09-06T05:56:49;8.88;;;3.37;;
51236;SDS011;37312;47.550;18.818;2022-09-06T05:59:15;4.95;;;3.92;;
51236;SDS011;37312;47.550;18.818;2022-09-06T06:01:48;3.90;;;3.60;;
51236;SDS011;37312;47.550;18.818;2022-09-06T06:04:18;5.37;;;4.25;;
51236;SDS011;37312;47.550;18.818;2022-09-06T06:06:44;3.15;;;2.65;;
51236;SDS011;37312;47.550;18.818;2022-09-06T06:09:14;4.35;;;3.53;;
51236;SDS011;37312;47.550;18.818;2022-09-06T06:11:41;4.10;;;3.80;;
51236;SDS011;37312;47.550;18.818;2022-09-06T06:14:07;4.30;;;3.65;;
51236;SDS011;37312;47.550;18.818;2022-09-06T06:16:34;8.75;;;4.60;;
51236;SDS011;37312;47.550;18.818;2022-09-06T06:19:00;4.70;;;4.40;;
51236;SDS011;37312;47.550;18.818;2022-09-06T06:21:26;4.37;;;4.07;;
51236;SDS011;37312;47.550;18.818;2022-09-06T06:23:55;4.68;;;4.28;;
51236;SDS011;37312;47.550;18.818;2022-09-06T06:26:23;6.68;;;4.12;;
51236;SDS011;37312;47.550;18.818;2022-09-06T06:28:50;3.45;;;3.15;;
51236;SDS011;37312;47.550;18.818;2022-09-06T06:31:16;4.22;;;3.92;;
51236;SDS011;37312;47.550;18.818;2022-09-06T06:33:42;4.18;;;3.78;;
51236;SDS011;37312;47.550;18.818;2022-09-06T06:38:38;5.68;;;3.90;;
51236;SDS011;37312;47.550;18.818;2022-09-06T06:41:06;3.47;;;3.20;;
51236;SDS011;37312;47.550;18.818;2022-09-06T06:43:33;3.70;;;3.45;;
51236;SDS011;37312;47.550;18.818;2022-09-06T06:46:06;4.37;;;3.70;;
51236;SDS011;37312;47.550;18.818;2022-09-06T06:48:34;3.85;;;3.55;;
51236;SDS011;37312;47.550;18.818;2022-09-06T06:51:01;4.18;;;3.87;;
51236;SDS011;37312;47.550;18.818;2022-09-06T06:53:28;5.95;;;3.58;;
51236;SDS011;37312;47.550;18.818;2022-09-06T06:55:54;4.10;;;3.78;;
51236;SDS011;37312;47.550;18.818;2022-09-06T06:58:20;4.10;;;3.58;;
51236;SDS011;37312;47.550;18.818;2022-09-06T07:00:46;4.80;;;3.95;;
51236;SDS011;37312;47.550;18.818;2022-09-06T07:03:12;3.20;;;3.00;;
51236;SDS011;37312;47.550;18.818;2022-09-06T07:05:38;5.62;;;3.95;;
51236;SDS011;37312;47.550;18.818;2022-09-06T07:08:08;4.12;;;3.83;;
51236;SDS011;37312;47.550;18.818;2022-09-06T07:10:34;3.90;;;3.60;;
51236;SDS011;37312;47.550;18.818;2022-09-06T07:13:00;4.68;;;3.90;;
51236;SDS011;37312;47.550;18.818;2022-09-06T07:15:27;14.15;;;4.03;;
51236;SDS011;37312;47.550;18.818;2022-09-06T07:17:54;5.40;;;3.80;;
51236;SDS011;37312;47.550;18.818;2022-09-06T07:20:21;5.15;;;4.18;;
51236;SDS011;37312;47.550;18.818;2022-09-06T07:22:56;3.80;;;3.40;;
51236;SDS011;37312;47.550;18.818;2022-09-06T07:25:26;10.95;;;4.32;;
51236;SDS011;37312;47.550;18.818;2022-09-06T07:28:03;3.83;;;3.33;;
51236;SDS011;37312;47.550;18.818;2022-09-06T07:30:33;4.22;;;3.42;;
51236;SDS011;37312;47.550;18.818;2022-09-06T07:33:04;8.95;;;4.55;;
51236;SDS011;37312;47.550;18.818;2022-09-06T07:35:30;4.80;;;3.78;;
51236;SDS011;37312;47.550;18.818;2022-09-06T07:37:57;4.05;;;3.75;;
51236;SDS011;37312;47.550;18.818;2022-09-06T07:40:26;3.97;;;3.60;;
51236;SDS011;37312;47.550;18.818;2022-09-06T07:42:56;4.15;;;3.83;;
51236;SDS011;37312;47.550;18.818;2022-09-06T07:45:26;4.10;;;3.40;;
51236;SDS011;37312;47.550;18.818;2022-09-06T07:47:55;4.10;;;3.80;;
51236;SDS011;37312;47.550;18.818;2022-09-06T07:50:25;3.87;;;3.60;;
51236;SDS011;37312;47.550;18.818;2022-09-06T07:52:51;3.78;;;3.47;;
51236;SDS011;37312;47.550;18.818;2022-09-06T07:55:17;8.30;;;4.65;;
51236;SDS011;37312;47.550;18.818;2022-09-06T07:57:43;9.15;;;4.65;;
51236;SDS011;37312;47.550;18.818;2022-09-06T08:00:09;3.85;;;3.47;;
51236;SDS011;37312;47.550;18.818;2022-09-06T08:02:37;6.15;;;3.53;;
51236;SDS011;37312;47.550;18.818;2022-09-06T08:05:03;3.62;;;3.37;;
51236;SDS011;37312;47.550;18.818;2022-09-06T08:07:29;5.53;;;3.50;;
51236;SDS011;37312;47.550;18.818;2022-09-06T08:09:55;3.85;;;3.55;;
51236;SDS011;37312;47.550;18.818;2022-09-06T08:12:21;7.95;;;4.43;;
51236;SDS011;37312;47.550;18.818;2022-09-06T08:14:48;3.47;;;3.28;;
51236;SDS011;37312;47.550;18.818;2022-09-06T08:17:14;5.87;;;3.50;;
51236;SDS011;37312;47.550;18.818;2022-09-06T08:19:40;3.83;;;3.53;;
51236;SDS011;37312;47.550;18.818;2022-09-06T08:22:06;5.07;;;4.10;;
51236;SDS011;37312;47.550;18.818;2022-09-06T08:24:32;4.90;;;3.58;;
51236;SDS011;37312;47.550;18.818;2022-09-06T08:27:00;5.20;;;4.72;;
51236;SDS011;37312;47.550;18.818;2022-09-06T08:29:27;3.80;;;3.47;;
51236;SDS011;37312;47.550;18.818;2022-09-06T08:31:53;5.32;;;4.20;;
51236;SDS011;37312;47.550;18.818;2022-09-06T08:34:19;5.03;;;4.43;;
51236;SDS011;37312;47.550;18.818;2022-09-06T08:36:44;4.18;;;3.78;;
51236;SDS011;37312;47.550;18.818;2022-09-06T08:39:11;5.07;;;4.68;;
51236;SDS011;37312;47.550;18.818;2022-09-06T08:44:29;4.93;;;4.45;;
51236;SDS011;37312;47.550;18.818;2022-09-06T08:46:58;5.78;;;4.65;;
51236;SDS011;37312;47.550;18.818;2022-09-06T08:49:28;4.20;;;3.85;;
51236;SDS011;37312;47.550;18.818;2022-09-06T09:00:51;4.12;;;3.75;;
51236;SDS011;37312;47.550;18.818;2022-09-06T09:03:38;4.37;;;4.07;;
51236;SDS011;37312;47.550;18.818;2022-09-06T09:06:08;4.18;;;3.75;;
51236;SDS011;37312;47.550;18.818;2022-09-06T09:11:10;5.43;;;4.87;;
51236;SDS011;37312;47.550;18.818;2022-09-06T09:13:52;5.80;;;4.70;;
51236;SDS011;37312;47.550;18.818;2022-09-06T09:16:35;4.72;;;4.30;;
51236;SDS011;37312;47.550;18.818;2022-09-06T09:19:03;4.70;;;3.85;;
51236;SDS011;37312;47.550;18.818;2022-09-06T09:21:30;4.62;;;4.22;;
51236;SDS011;37312;47.550;18.818;2022-09-06T09:24:05;12.25;;;4.50;;
51236;SDS011;37312;47.550;18.818;2022-09-06T09:26:34;6.25;;;4.43;;
51236;SDS011;37312;47.550;18.818;2022-09-06T09:29:13;4.20;;;3.90;;
51236;SDS011;37312;47.550;18.818;2022-09-06T09:31:46;4.12;;;3.83;;
51236;SDS011;37312;47.550;18.818;2022-09-06T09:37:12;3.78;;;3.45;;
51236;SDS011;37312;47.550;18.818;2022-09-06T09:39:38;4.97;;;4.62;;
51236;SDS011;37312;47.550;18.818;2022-09-06T09:42:06;4.28;;;3.97;;
51236;SDS011;37312;47.550;18.818;2022-09-06T09:44:32;4.82;;;3.80;;
51236;SDS011;37312;47.550;18.818;2022-09-06T09:46:59;10.57;;;3.92;;
51236;SDS011;37312;47.550;18.818;2022-09-06T09:49:34;4.10;;;3.70;;
51236;SDS011;37312;47.550;18.818;2022-09-06T09:52:10;4.57;;;3.85;;
51236;SDS011;37312;47.550;18.818;2022-09-06T09:54:39;5.50;;;4.93;;
51236;SDS011;37312;47.550;18.818;2022-09-06T09:57:09;5.87;;;4.37;;
51236;SDS011;37312;47.550;18.818;2022-09-06T09:59:54;4.43;;;4.00;;
51236;SDS011;37312;47.550;18.818;2022-09-06T10:02:24;4.57;;;4.20;;
51236;SDS011;37312;47.550;18.818;2022-09-06T10:04:58;7.37;;;5.28;;
51236;SDS011;37312;47.550;18.818;2022-09-06T10:07:27;8.38;;;4.25;;
51236;SDS011;37312;47.550;18.818;2022-09-06T10:12:34;5.72;;;4.10;;
51236;SDS011;37312;47.550;18.818;2022-09-06T10:15:03;4.70;;;4.22;;
51236;SDS011;37312;47.550;18.818;2022-09-06T10:17:35;13.02;;;5.75;;
51236;SDS011;37312;47.550;18.818;2022-09-06T10:20:06;4.32;;;3.95;;
51236;SDS011;37312;47.550;18.818;2022-09-06T10:28:13;5.90;;;4.97;;
51236;SDS011;37312;47.550;18.818;2022-09-06T10:36:36;3.40;;;3.15;;
51236;SDS011;37312;47.550;18.818;2022-09-06T10:39:22;4.05;;;3.75;;
51236;SDS011;37312;47.550;18.818;2022-09-06T10:41:54;7.50;;;4.20;;
51236;SDS011;37312;47.550;18.818;2022-09-06T10:44:47;4.87;;;4.47;;
51236;SDS011;37312;47.550;18.818;2022-09-06T10:47:57;3.67;;;3.37;;
51236;SDS011;37312;47.550;18.818;2022-09-06T10:53:29;3.72;;;3.45;;
51236;SDS011;37312;47.550;18.818;2022-09-06T10:56:15;7.07;;;5.05;;
51236;SDS011;37312;47.550;18.818;2022-09-06T10:58:49;4.60;;;4.30;;
51236;SDS011;37312;47.550;18.818;2022-09-06T11:01:25;4.28;;;3.97;;
51236;SDS011;37312;47.550;18.818;2022-09-06T11:03:58;4.03;;;3.72;;
51236;SDS011;37312;47.550;18.818;2022-09-06T11:06:30;4.12;;;3.83;;
51236;SDS011;37312;47.550;18.818;2022-09-06T11:09:05;4.25;;;3.95;;
51236;SDS011;37312;47.550;18.818;2022-09-06T11:11:41;4.97;;;4.47;;
51236;SDS011;37312;47.550;18.818;2022-09-06T11:14:12;4.60;;;4.25;;
51236;SDS011;37312;47.550;18.818;2022-09-06T11:16:50;5.07;;;4.57;;
51236;SDS011;37312;47.550;18.818;2022-09-06T11:22:20;4.70;;;4.25;;
51236;SDS011;37312;47.550;18.818;2022-09-06T11:27:44;3.80;;;3.45;;
51236;SDS011;37312;47.550;18.818;2022-09-06T11:30:15;3.83;;;3.40;;
51236;SDS011;37312;47.550;18.818;2022-09-06T11:32:49;4.05;;;3.85;;
51236;SDS011;37312;47.550;18.818;2022-09-06T11:35:23;4.85;;;4.30;;
51236;SDS011;37312;47.550;18.818;2022-09-06T11:38:02;4.03;;;3.78;;
51236;SDS011;37312;47.550;18.818;2022-09-06T11:41:04;4.53;;;4.15;;
51236;SDS011;37312;47.550;18.818;2022-09-06T11:43:41;6.78;;;5.10;;
51236;SDS011;37312;47.550;18.818;2022-09-06T11:46:07;3.65;;;3.45;;
51236;SDS011;37312;47.550;18.818;2022-09-06T11:48:35;3.22;;;3.03;;
51236;SDS011;37312;47.550;18.818;2022-09-06T11:51:23;3.75;;;3.45;;
51236;SDS011;37312;47.550;18.818;2022-09-06T12:07:16;6.97;;;2.97;;
51236;SDS011;37312;47.550;18.818;2022-09-06T12:09:43;6.93;;;3.25;;
51236;SDS011;37312;47.550;18.818;2022-09-06T12:12:10;5.70;;;4.05;;
51236;SDS011;37312;47.550;18.818;2022-09-06T12:25:04;4.75;;;2.90;;
51236;SDS011;37312;47.550;18.818;2022-09-06T12:27:52;3.10;;;2.92;;
51236;SDS011;37312;47.550;18.818;2022-09-06T12:30:37;5.32;;;2.78;;
51236;SDS011;37312;47.550;18.818;2022-09-06T12:35:49;8.95;;;3.50;;
51236;SDS011;37312;47.550;18.818;2022-09-06T12:38:20;6.90;;;3.08;;
51236;SDS011;37312;47.550;18.818;2022-09-06T12:40:49;2.90;;;2.70;;
51236;SDS011;37312;47.550;18.818;2022-09-06T12:43:19;4.07;;;3.67;;
51236;SDS011;37312;47.550;18.818;2022-09-06T12:45:46;6.20;;;4.25;;
51236;SDS011;37312;47.550;18.818;2022-09-06T12:48:30;3.10;;;2.90;;
51236;SDS011;37312;47.550;18.818;2022-09-06T12:51:02;4.80;;;3.45;;
51236;SDS011;37312;47.550;18.818;2022-09-06T12:53:29;5.40;;;3.05;;
51236;SDS011;37312;47.550;18.818;2022-09-06T12:58:29;6.50;;;3.47;;
51236;SDS011;37312;47.550;18.818;2022-09-06T13:00:55;5.30;;;3.75;;
51236;SDS011;37312;47.550;18.818;2022-09-06T13:06:19;4.68;;;3.50;;
51236;SDS011;37312;47.550;18.818;2022-09-06T13:08:53;3.78;;;3.42;;
51236;SDS011;37312;47.550;18.818;2022-09-06T13:11:31;3.72;;;3.42;;
51236;SDS011;37312;47.550;18.818;2022-09-06T13:14:10;5.20;;;3.62;;
51236;SDS011;37312;47.550;18.818;2022-09-06T13:16:42;3.30;;;3.10;;
51236;SDS011;37312;47.550;18.818;2022-09-06T13:19:30;6.55;;;3.00;;
51236;SDS011;37312;47.550;18.818;2022-09-06T13:22:01;7.90;;;3.45;;
51236;SDS011;37312;47.550;18.818;2022-09-06T13:26:58;4.30;;;4.00;;
51236;SDS011;37312;47.550;18.818;2022-09-06T13:29:28;3.62;;;3.33;;
51236;SDS011;37312;47.550;18.818;2022-09-06T13:31:56;3.58;;;3.28;;
51236;SDS011;37312;47.550;18.818;2022-09-06T13:34:30;4.05;;;3.75;;
51236;SDS011;37312;47.550;18.818;2022-09-06T13:37:07;14.10;;;3.80;;
51236;SDS011;37312;47.550;18.818;2022-09-06T13:39:35;4.43;;;3.95;;
51236;SDS011;37312;47.550;18.818;2022-09-06T13:45:20;5.70;;;5.12;;
51236;SDS011;37312;47.550;18.818;2022-09-06T13:47:48;7.07;;;3.85;;
51236;SDS011;37312;47.550;18.818;2022-09-06T13:50:14;3.55;;;3.33;;
51236;SDS011;37312;47.550;18.818;2022-09-06T13:52:40;3.45;;;3.25;;
51236;SDS011;37312;47.550;18.818;2022-09-06T13:55:06;5.00;;;3.47;;
51236;SDS011;37312;47.550;18.818;2022-09-06T13:57:32;7.47;;;3.90;;
51236;SDS011;37312;47.550;18.818;2022-09-06T13:59:58;6.15;;;4.47;;
51236;SDS011;37312;47.550;18.818;2022-09-06T14:02:24;11.77;;;4.30;;
51236;SDS011;37312;47.550;18.818;2022-09-06T14:04:50;8.23;;;3.53;;
51236;SDS011;37312;47.550;18.818;2022-09-06T14:07:16;8.45;;;4.57;;
51236;SDS011;37312;47.550;18.818;2022-09-06T14:09:42;5.80;;;4.62;;
51236;SDS011;37312;47.550;18.818;2022-09-06T14:12:08;5.93;;;4.12;;
51236;SDS011;37312;47.550;18.818;2022-09-06T14:14:35;8.85;;;4.15;;
51236;SDS011;37312;47.550;18.818;2022-09-06T14:17:01;4.57;;;4.18;;
51236;SDS011;37312;47.550;18.818;2022-09-06T14:19:26;4.50;;;4.03;;
51236;SDS011;37312;47.550;18.818;2022-09-06T14:21:53;9.60;;;3.78;;
51236;SDS011;37312;47.550;18.818;2022-09-06T14:24:19;4.97;;;3.22;;
51236;SDS011;37312;47.550;18.818;2022-09-06T14:26:45;4.28;;;3.97;;
51236;SDS011;37312;47.550;18.818;2022-09-06T14:29:11;4.18;;;3.60;;
51236;SDS011;37312;47.550;18.818;2022-09-06T14:31:37;4.00;;;3.65;;
51236;SDS011;37312;47.550;18.818;2022-09-06T14:34:04;5.65;;;4.55;;
51236;SDS011;37312;47.550;18.818;2022-09-06T14:36:30;6.10;;;5.18;;
51236;SDS011;37312;47.550;18.818;2022-09-06T14:38:57;5.20;;;4.72;;
51236;SDS011;37312;47.550;18.818;2022-09-06T14:41:24;6.53;;;6.05;;
51236;SDS011;37312;47.550;18.818;2022-09-06T14:43:51;6.50;;;5.45;;
51236;SDS011;37312;47.550;18.818;2022-09-06T14:46:19;7.47;;;4.93;;
51236;SDS011;37312;47.550;18.818;2022-09-06T14:48:47;6.53;;;5.93;;
51236;SDS011;37312;47.550;18.818;2022-09-06T14:51:17;6.07;;;5.68;;
51236;SDS011;37312;47.550;18.818;2022-09-06T14:53:49;6.20;;;5.70;;
51236;SDS011;37312;47.550;18.818;2022-09-06T14:56:17;9.13;;;6.25;;
51236;SDS011;37312;47.550;18.818;2022-09-06T14:58:44;8.52;;;7.12;;
51236;SDS011;37312;47.550;18.818;2022-09-06T15:01:18;8.70;;;7.10;;
51236;SDS011;37312;47.550;18.818;2022-09-06T15:03:47;8.05;;;7.35;;
51236;SDS011;37312;47.550;18.818;2022-09-06T15:06:16;7.95;;;7.18;;
51236;SDS011;37312;47.550;18.818;2022-09-06T15:08:44;7.72;;;7.05;;
51236;SDS011;37312;47.550;18.818;2022-09-06T15:11:10;8.32;;;7.68;;
51236;SDS011;37312;47.550;18.818;2022-09-06T15:13:37;8.32;;;7.78;;
51236;SDS011;37312;47.550;18.818;2022-09-06T15:16:05;7.10;;;6.60;;
51236;SDS011;37312;47.550;18.818;2022-09-06T15:18:32;9.15;;;8.25;;
51236;SDS011;37312;47.550;18.818;2022-09-06T15:21:12;7.65;;;7.00;;
51236;SDS011;37312;47.550;18.818;2022-09-06T15:23:40;8.75;;;7.70;;
51236;SDS011;37312;47.550;18.818;2022-09-06T15:26:07;7.93;;;7.22;;
51236;SDS011;37312;47.550;18.818;2022-09-06T15:28:36;7.30;;;6.70;;
51236;SDS011;37312;47.550;18.818;2022-09-06T15:31:03;8.15;;;7.43;;
51236;SDS011;37312;47.550;18.818;2022-09-06T15:33:31;6.37;;;5.90;;
51236;SDS011;37312;47.550;18.818;2022-09-06T15:35:58;6.45;;;6.03;;
51236;SDS011;37312;47.550;18.818;2022-09-06T15:38:34;6.10;;;5.60;;
51236;SDS011;37312;47.550;18.818;2022-09-06T15:41:12;6.03;;;5.53;;
51236;SDS011;37312;47.550;18.818;2022-09-06T15:43:40;5.93;;;5.43;;
51236;SDS011;37312;47.550;18.818;2022-09-06T15:46:09;8.13;;;6.78;;
51236;SDS011;37312;47.550;18.818;2022-09-06T15:48:39;6.40;;;5.90;;
51236;SDS011;37312;47.550;18.818;2022-09-06T15:51:09;5.65;;;5.15;;
51236;SDS011;37312;47.550;18.818;2022-09-06T15:53:37;6.78;;;5.50;;
51236;SDS011;37312;47.550;18.818;2022-09-06T15:56:03;5.57;;;5.22;;
51236;SDS011;37312;47.550;18.818;2022-09-06T15:58:31;6.72;;;6.12;;
51236;SDS011;37312;47.550;18.818;2022-09-06T16:00:58;7.40;;;6.60;;
51236;SDS011;37312;47.550;18.818;2022-09-06T16:03:29;8.75;;;6.15;;
51236;SDS011;37312;47.550;18.818;2022-09-06T16:06:02;6.45;;;5.97;;
51236;SDS011;37312;47.550;18.818;2022-09-06T16:08:33;7.60;;;7.00;;
51236;SDS011;37312;47.550;18.818;2022-09-06T16:11:00;7.07;;;6.47;;
51236;SDS011;37312;47.550;18.818;2022-09-06T16:13:32;7.32;;;6.72;;
51236;SDS011;37312;47.550;18.818;2022-09-06T16:16:00;8.52;;;6.80;;
51236;SDS011;37312;47.550;18.818;2022-09-06T16:18:29;8.00;;;7.07;;
51236;SDS011;37312;47.550;18.818;2022-09-06T16:20:55;7.12;;;6.30;;
51236;SDS011;37312;47.550;18.818;2022-09-06T16:23:21;7.43;;;6.72;;
51236;SDS011;37312;47.550;18.818;2022-09-06T16:25:51;6.72;;;5.78;;
51236;SDS011;37312;47.550;18.818;2022-09-06T16:28:18;6.62;;;5.82;;
51236;SDS011;37312;47.550;18.818;2022-09-06T16:30:45;8.27;;;5.60;;
51236;SDS011;37312;47.550;18.818;2022-09-06T16:33:11;8.43;;;7.55;;
51236;SDS011;37312;47.550;18.818;2022-09-06T16:35:38;7.22;;;6.55;;
51236;SDS011;37312;47.550;18.818;2022-09-06T16:38:05;7.87;;;7.18;;
51236;SDS011;37312;47.550;18.818;2022-09-06T16:40:32;6.25;;;5.65;;
51236;SDS011;37312;47.550;18.818;2022-09-06T16:42:59;7.05;;;6.53;;
51236;SDS011;37312;47.550;18.818;2022-09-06T16:45:25;6.95;;;6.53;;
51236;SDS011;37312;47.550;18.818;2022-09-06T16:47:51;7.10;;;6.40;;
51236;SDS011;37312;47.550;18.818;2022-09-06T16:50:17;7.65;;;6.57;;
51236;SDS011;37312;47.550;18.818;2022-09-06T16:52:43;7.55;;;6.75;;
51236;SDS011;37312;47.550;18.818;2022-09-06T16:55:09;6.50;;;6.00;;
51236;SDS011;37312;47.550;18.818;2022-09-06T16:57:37;7.37;;;6.70;;
51236;SDS011;37312;47.550;18.818;2022-09-06T17:00:04;7.57;;;6.97;;
51236;SDS011;37312;47.550;18.818;2022-09-06T17:02:30;8.25;;;7.30;;
51236;SDS011;37312;47.550;18.818;2022-09-06T17:04:56;7.20;;;6.53;;
51236;SDS011;37312;47.550;18.818;2022-09-06T17:07:22;7.78;;;6.97;;
51236;SDS011;37312;47.550;18.818;2022-09-06T17:09:49;10.32;;;7.12;;
51236;SDS011;37312;47.550;18.818;2022-09-06T17:12:15;7.00;;;6.40;;
51236;SDS011;37312;47.550;18.818;2022-09-06T17:14:41;7.30;;;6.72;;